sensor_id;sensor_type;location;lat;lon;timestamp;P1;durP1;ratioP1;P2;durP2;ratioP2
69030;SDS011;56083;48.774;8.942;2022-10-04T00:01:50;15.57;;;10.75;;
69030;SDS011;56083;48.774;8.942;2022-10-04T00:07:05;17.95;;;9.80;;
69030;SDS011;56083;48.774;8.942;2022-10-04T00:09:59;16.75;;;10.18;;
69030;SDS011;56083;48.774;8.942;2022-10-04T00:12:44;14.25;;;9.75;;
69030;SDS011;56083;48.774;8.942;2022-10-04T00:15:22;17.90;;;10.13;;
69030;SDS011;56083;48.774;8.942;2022-10-04T00:17:59;20.30;;;11.88;;
69030;SDS011;56083;48.774;8.942;2022-10-04T00:33:51;24.27;;;13.85;;
69030;SDS011;56083;48.774;8.942;2022-10-04T00:50:06;23.55;;;13.82;;
69030;SDS011;56083;48.774;8.942;2022-10-04T00:52:58;20.70;;;13.82;;
69030;SDS011;56083;48.774;8.942;2022-10-04T00:55:37;23.65;;;12.85;;
69030;SDS011;56083;48.774;8.942;2022-10-04T00:58:14;22.33;;;12.88;;
69030;SDS011;56083;48.774;8.942;2022-10-04T01:00:48;21.98;;;12.98;;
69030;SDS011;56083;48.774;8.942;2022-10-04T01:03:22;22.80;;;12.27;;
69030;SDS011;56083;48.774;8.942;2022-10-04T01:05:57;25.42;;;14.48;;
69030;SDS011;56083;48.774;8.942;2022-10-04T01:08:31;26.45;;;13.23;;
69030;SDS011;56083;48.774;8.942;2022-10-04T01:11:06;26.53;;;12.83;;
69030;SDS011;56083;48.774;8.942;2022-10-04T01:13:46;21.85;;;12.25;;
69030;SDS011;56083;48.774;8.942;2022-10-04T01:16:21;26.98;;;13.40;;
69030;SDS011;56083;48.774;8.942;2022-10-04T01:18:50;24.70;;;13.60;;
69030;SDS011;56083;48.774;8.942;2022-10-04T01:23:48;28.88;;;13.77;;
69030;SDS011;56083;48.774;8.942;2022-10-04T01:31:27;33.78;;;14.82;;
69030;SDS011;56083;48.774;8.942;2022-10-04T01:33:54;31.30;;;13.80;;
69030;SDS011;56083;48.774;8.942;2022-10-04T01:36:20;28.95;;;13.07;;
69030;SDS011;56083;48.774;8.942;2022-10-04T01:38:47;25.90;;;13.45;;
69030;SDS011;56083;48.774;8.942;2022-10-04T01:41:14;21.30;;;12.48;;
69030;SDS011;56083;48.774;8.942;2022-10-04T01:43:43;21.08;;;13.13;;
69030;SDS011;56083;48.774;8.942;2022-10-04T01:46:22;24.17;;;14.40;;
69030;SDS011;56083;48.774;8.942;2022-10-04T01:48:53;21.75;;;12.73;;
69030;SDS011;56083;48.774;8.942;2022-10-04T01:51:30;26.63;;;14.38;;
69030;SDS011;56083;48.774;8.942;2022-10-04T01:54:08;26.23;;;13.80;;
69030;SDS011;56083;48.774;8.942;2022-10-04T01:59:41;22.20;;;13.43;;
69030;SDS011;56083;48.774;8.942;2022-10-04T02:05:12;27.58;;;14.23;;
69030;SDS011;56083;48.774;8.942;2022-10-04T02:07:42;34.80;;;14.35;;
69030;SDS011;56083;48.774;8.942;2022-10-04T02:10:14;20.30;;;12.40;;
69030;SDS011;56083;48.774;8.942;2022-10-04T02:12:44;24.10;;;12.57;;
69030;SDS011;56083;48.774;8.942;2022-10-04T02:15:17;20.02;;;11.82;;
69030;SDS011;56083;48.774;8.942;2022-10-04T02:17:44;25.17;;;14.35;;
69030;SDS011;56083;48.774;8.942;2022-10-04T02:20:15;27.42;;;13.80;;
69030;SDS011;56083;48.774;8.942;2022-10-04T02:22:49;24.05;;;13.40;;
69030;SDS011;56083;48.774;8.942;2022-10-04T02:25:27;24.77;;;13.35;;
69030;SDS011;56083;48.774;8.942;2022-10-04T02:27:54;27.83;;;13.57;;
69030;SDS011;56083;48.774;8.942;2022-10-04T02:30:20;26.67;;;13.50;;
69030;SDS011;56083;48.774;8.942;2022-10-04T02:32:47;24.23;;;13.55;;
69030;SDS011;56083;48.774;8.942;2022-10-04T02:35:22;29.77;;;14.13;;
69030;SDS011;56083;48.774;8.942;2022-10-04T02:37:57;18.88;;;12.07;;
69030;SDS011;56083;48.774;8.942;2022-10-04T02:40:35;24.25;;;12.10;;
69030;SDS011;56083;48.774;8.942;2022-10-04T02:43:16;25.40;;;12.68;;
69030;SDS011;56083;48.774;8.942;2022-10-04T02:51:17;24.08;;;12.35;;
69030;SDS011;56083;48.774;8.942;2022-10-04T02:56:16;21.88;;;13.43;;
69030;SDS011;56083;48.774;8.942;2022-10-04T02:58:43;25.30;;;13.48;;
69030;SDS011;56083;48.774;8.942;2022-10-04T03:01:16;23.88;;;14.43;;
69030;SDS011;56083;48.774;8.942;2022-10-04T03:03:50;27.85;;;14.32;;
69030;SDS011;56083;48.774;8.942;2022-10-04T03:06:19;24.92;;;14.80;;
69030;SDS011;56083;48.774;8.942;2022-10-04T03:08:48;27.17;;;14.02;;
69030;SDS011;56083;48.774;8.942;2022-10-04T03:11:17;35.33;;;14.00;;
69030;SDS011;56083;48.774;8.942;2022-10-04T03:13:48;28.35;;;15.00;;
69030;SDS011;56083;48.774;8.942;2022-10-04T03:16:17;25.75;;;14.25;;
69030;SDS011;56083;48.774;8.942;2022-10-04T03:18:43;27.67;;;14.68;;
69030;SDS011;56083;48.774;8.942;2022-10-04T03:21:12;29.90;;;15.52;;
69030;SDS011;56083;48.774;8.942;2022-10-04T03:23:40;27.70;;;15.75;;
69030;SDS011;56083;48.774;8.942;2022-10-04T03:26:23;31.10;;;15.55;;
69030;SDS011;56083;48.774;8.942;2022-10-04T03:28:51;32.55;;;14.60;;
69030;SDS011;56083;48.774;8.942;2022-10-04T03:31:17;27.73;;;15.18;;
69030;SDS011;56083;48.774;8.942;2022-10-04T03:33:43;33.00;;;15.57;;
69030;SDS011;56083;48.774;8.942;2022-10-04T03:36:14;28.35;;;15.18;;
69030;SDS011;56083;48.774;8.942;2022-10-04T03:38:43;27.98;;;14.73;;
69030;SDS011;56083;48.774;8.942;2022-10-04T03:41:10;32.83;;;16.83;;
69030;SDS011;56083;48.774;8.942;2022-10-04T03:43:39;34.50;;;17.30;;
69030;SDS011;56083;48.774;8.942;2022-10-04T03:46:09;31.77;;;15.98;;
69030;SDS011;56083;48.774;8.942;2022-10-04T03:51:05;26.58;;;15.13;;
69030;SDS011;56083;48.774;8.942;2022-10-04T03:53:39;27.77;;;16.17;;
69030;SDS011;56083;48.774;8.942;2022-10-04T03:56:50;33.17;;;16.70;;
69030;SDS011;56083;48.774;8.942;2022-10-04T03:59:02;29.85;;;15.68;;
69030;SDS011;56083;48.774;8.942;2022-10-04T04:01:34;30.10;;;15.75;;
69030;SDS011;56083;48.774;8.942;2022-10-04T04:06:36;27.52;;;15.30;;
69030;SDS011;56083;48.774;8.942;2022-10-04T04:09:07;31.48;;;15.75;;
69030;SDS011;56083;48.774;8.942;2022-10-04T04:11:40;30.92;;;15.75;;
69030;SDS011;56083;48.774;8.942;2022-10-04T04:14:13;32.97;;;17.80;;
69030;SDS011;56083;48.774;8.942;2022-10-04T04:16:47;32.78;;;15.65;;
69030;SDS011;56083;48.774;8.942;2022-10-04T04:19:14;33.90;;;16.67;;
69030;SDS011;56083;48.774;8.942;2022-10-04T04:21:45;32.35;;;17.10;;
69030;SDS011;56083;48.774;8.942;2022-10-04T04:24:14;33.08;;;17.30;;
69030;SDS011;56083;48.774;8.942;2022-10-04T04:26:57;34.00;;;19.38;;
69030;SDS011;56083;48.774;8.942;2022-10-04T04:29:50;34.50;;;18.88;;
69030;SDS011;56083;48.774;8.942;2022-10-04T04:32:39;35.83;;;17.90;;
69030;SDS011;56083;48.774;8.942;2022-10-04T04:35:29;32.22;;;17.98;;
69030;SDS011;56083;48.774;8.942;2022-10-04T04:38:15;41.63;;;19.77;;
69030;SDS011;56083;48.774;8.942;2022-10-04T04:40:49;41.58;;;18.98;;
69030;SDS011;56083;48.774;8.942;2022-10-04T04:43:28;45.90;;;19.95;;
69030;SDS011;56083;48.774;8.942;2022-10-04T04:45:58;39.30;;;20.00;;
69030;SDS011;56083;48.774;8.942;2022-10-04T04:48:27;41.65;;;19.38;;
69030;SDS011;56083;48.774;8.942;2022-10-04T04:50:59;36.08;;;18.42;;
69030;SDS011;56083;48.774;8.942;2022-10-04T04:53:48;39.85;;;18.75;;
69030;SDS011;56083;48.774;8.942;2022-10-04T04:56:32;38.70;;;18.92;;
69030;SDS011;56083;48.774;8.942;2022-10-04T04:59:00;41.95;;;18.20;;
69030;SDS011;56083;48.774;8.942;2022-10-04T05:01:47;35.88;;;17.83;;
69030;SDS011;56083;48.774;8.942;2022-10-04T05:04:32;37.63;;;18.38;;
69030;SDS011;56083;48.774;8.942;2022-10-04T05:07:05;33.67;;;17.27;;
69030;SDS011;56083;48.774;8.942;2022-10-04T05:09:49;40.00;;;18.83;;
69030;SDS011;56083;48.774;8.942;2022-10-04T05:12:30;37.40;;;18.17;;
69030;SDS011;56083;48.774;8.942;2022-10-04T05:15:07;40.15;;;19.02;;
69030;SDS011;56083;48.774;8.942;2022-10-04T05:17:49;38.80;;;19.45;;
69030;SDS011;56083;48.774;8.942;2022-10-04T05:20:15;39.42;;;18.98;;
69030;SDS011;56083;48.774;8.942;2022-10-04T05:23:28;34.70;;;18.40;;
69030;SDS011;56083;48.774;8.942;2022-10-04T05:25:57;45.72;;;20.10;;
69030;SDS011;56083;48.774;8.942;2022-10-04T05:28:26;37.60;;;19.58;;
69030;SDS011;56083;48.774;8.942;2022-10-04T05:31:04;38.22;;;20.63;;
69030;SDS011;56083;48.774;8.942;2022-10-04T05:33:46;37.95;;;19.63;;
69030;SDS011;56083;48.774;8.942;2022-10-04T05:39:11;48.00;;;23.27;;
69030;SDS011;56083;48.774;8.942;2022-10-04T05:42:19;50.88;;;22.33;;
69030;SDS011;56083;48.774;8.942;2022-10-04T05:45:21;51.17;;;22.58;;
69030;SDS011;56083;48.774;8.942;2022-10-04T05:48:05;50.50;;;21.98;;
69030;SDS011;56083;48.774;8.942;2022-10-04T05:53:53;49.63;;;22.48;;
69030;SDS011;56083;48.774;8.942;2022-10-04T06:17:22;49.63;;;21.15;;
69030;SDS011;56083;48.774;8.942;2022-10-04T06:22:46;45.75;;;22.52;;
69030;SDS011;56083;48.774;8.942;2022-10-04T06:25:29;44.95;;;21.25;;
69030;SDS011;56083;48.774;8.942;2022-10-04T06:30:50;40.72;;;20.38;;
69030;SDS011;56083;48.774;8.942;2022-10-04T06:39:11;38.65;;;19.45;;
69030;SDS011;56083;48.774;8.942;2022-10-04T06:44:34;30.88;;;17.58;;
69030;SDS011;56083;48.774;8.942;2022-10-04T06:49:53;32.03;;;18.30;;
69030;SDS011;56083;48.774;8.942;2022-10-04T06:52:34;35.55;;;18.38;;
69030;SDS011;56083;48.774;8.942;2022-10-04T06:55:36;35.10;;;17.73;;
69030;SDS011;56083;48.774;8.942;2022-10-04T07:06:06;25.88;;;14.65;;
69030;SDS011;56083;48.774;8.942;2022-10-04T07:11:16;29.03;;;14.43;;
69030;SDS011;56083;48.774;8.942;2022-10-04T07:13:58;30.23;;;15.38;;
69030;SDS011;56083;48.774;8.942;2022-10-04T07:21:52;24.38;;;13.45;;
69030;SDS011;56083;48.774;8.942;2022-10-04T07:27:31;29.75;;;13.27;;
69030;SDS011;56083;48.774;8.942;2022-10-04T07:30:08;27.50;;;14.20;;
69030;SDS011;56083;48.774;8.942;2022-10-04T07:32:44;23.40;;;12.52;;
69030;SDS011;56083;48.774;8.942;2022-10-04T07:35:13;25.58;;;12.57;;
69030;SDS011;56083;48.774;8.942;2022-10-04T07:40:57;27.52;;;11.70;;
69030;SDS011;56083;48.774;8.942;2022-10-04T07:49:43;22.67;;;10.93;;
69030;SDS011;56083;48.774;8.942;2022-10-04T08:03:48;21.85;;;9.18;;
69030;SDS011;56083;48.774;8.942;2022-10-04T08:06:31;16.90;;;8.45;;
69030;SDS011;56083;48.774;8.942;2022-10-04T08:14:26;18.60;;;9.48;;
69030;SDS011;56083;48.774;8.942;2022-10-04T08:16:56;13.52;;;8.00;;
69030;SDS011;56083;48.774;8.942;2022-10-04T08:19:33;18.48;;;9.00;;
69030;SDS011;56083;48.774;8.942;2022-10-04T08:30:54;20.35;;;7.60;;
69030;SDS011;56083;48.774;8.942;2022-10-04T08:36:55;16.40;;;7.38;;
69030;SDS011;56083;48.774;8.942;2022-10-04T08:39:45;17.27;;;6.93;;
69030;SDS011;56083;48.774;8.942;2022-10-04T08:42:53;20.58;;;6.15;;
69030;SDS011;56083;48.774;8.942;2022-10-04T08:46:00;11.98;;;5.47;;
69030;SDS011;56083;48.774;8.942;2022-10-04T09:00:52;15.95;;;4.78;;
69030;SDS011;56083;48.774;8.942;2022-10-04T09:12:10;18.50;;;4.72;;
69030;SDS011;56083;48.774;8.942;2022-10-04T09:26:11;8.60;;;3.50;;
69030;SDS011;56083;48.774;8.942;2022-10-04T09:37:20;10.18;;;3.75;;
69030;SDS011;56083;48.774;8.942;2022-10-04T09:48:26;10.27;;;3.75;;
69030;SDS011;56083;48.774;8.942;2022-10-04T10:06:13;9.52;;;3.15;;
69030;SDS011;56083;48.774;8.942;2022-10-04T10:15:17;8.38;;;3.40;;
69030;SDS011;56083;48.774;8.942;2022-10-04T10:21:11;9.65;;;3.20;;
69030;SDS011;56083;48.774;8.942;2022-10-04T10:30:04;6.70;;;2.58;;
69030;SDS011;56083;48.774;8.942;2022-10-04T11:03:44;8.63;;;2.00;;
69030;SDS011;56083;48.774;8.942;2022-10-04T11:16:37;8.63;;;2.45;;
69030;SDS011;56083;48.774;8.942;2022-10-04T11:43:25;6.93;;;2.05;;
69030;SDS011;56083;48.774;8.942;2022-10-04T11:57:47;6.10;;;1.70;;
69030;SDS011;56083;48.774;8.942;2022-10-04T12:06:43;4.50;;;1.58;;
69030;SDS011;56083;48.774;8.942;2022-10-04T12:16:48;4.82;;;1.80;;
69030;SDS011;56083;48.774;8.942;2022-10-04T12:24:59;5.22;;;1.48;;
69030;SDS011;56083;48.774;8.942;2022-10-04T12:51:36;8.73;;;1.40;;
69030;SDS011;56083;48.774;8.942;2022-10-04T13:03:53;7.75;;;1.40;;
69030;SDS011;56083;48.774;8.942;2022-10-04T13:15:27;2.58;;;1.17;;
69030;SDS011;56083;48.774;8.942;2022-10-04T13:21:06;3.78;;;1.25;;
69030;SDS011;56083;48.774;8.942;2022-10-04T13:27:19;5.70;;;1.20;;
69030;SDS011;56083;48.774;8.942;2022-10-04T13:32:55;4.57;;;1.40;;
69030;SDS011;56083;48.774;8.942;2022-10-04T13:38:25;5.72;;;1.23;;
69030;SDS011;56083;48.774;8.942;2022-10-04T13:57:04;5.05;;;1.25;;
69030;SDS011;56083;48.774;8.942;2022-10-04T14:08:04;6.43;;;1.25;;
69030;SDS011;56083;48.774;8.942;2022-10-04T14:16:13;2.67;;;1.30;;
69030;SDS011;56083;48.774;8.942;2022-10-04T14:48:56;3.92;;;1.38;;
69030;SDS011;56083;48.774;8.942;2022-10-04T14:54:31;6.95;;;1.30;;
69030;SDS011;56083;48.774;8.942;2022-10-04T15:10:39;3.10;;;1.17;;
69030;SDS011;56083;48.774;8.942;2022-10-04T15:13:29;4.72;;;1.30;;
69030;SDS011;56083;48.774;8.942;2022-10-04T15:16:02;4.47;;;1.20;;
69030;SDS011;56083;48.774;8.942;2022-10-04T15:18:45;2.22;;;0.93;;
69030;SDS011;56083;48.774;8.942;2022-10-04T15:29:23;4.82;;;1.20;;
69030;SDS011;56083;48.774;8.942;2022-10-04T15:34:57;2.80;;;1.27;;
69030;SDS011;56083;48.774;8.942;2022-10-04T15:43:26;3.03;;;1.10;;
69030;SDS011;56083;48.774;8.942;2022-10-04T15:52:12;9.90;;;1.80;;
69030;SDS011;56083;48.774;8.942;2022-10-04T15:55:09;7.35;;;1.90;;
69030;SDS011;56083;48.774;8.942;2022-10-04T16:00:40;11.55;;;1.85;;
69030;SDS011;56083;48.774;8.942;2022-10-04T16:11:58;12.00;;;2.08;;
69030;SDS011;56083;48.774;8.942;2022-10-04T16:23:20;9.48;;;2.40;;
69030;SDS011;56083;48.774;8.942;2022-10-04T16:25:51;9.77;;;1.98;;
69030;SDS011;56083;48.774;8.942;2022-10-04T16:28:28;8.35;;;2.58;;
69030;SDS011;56083;48.774;8.942;2022-10-04T16:31:24;7.43;;;2.03;;
69030;SDS011;56083;48.774;8.942;2022-10-04T16:34:02;14.32;;;2.80;;
69030;SDS011;56083;48.774;8.942;2022-10-04T16:39:31;13.70;;;2.25;;
69030;SDS011;56083;48.774;8.942;2022-10-04T16:42:16;11.27;;;2.40;;
69030;SDS011;56083;48.774;8.942;2022-10-04T16:44:49;9.55;;;1.90;;
69030;SDS011;56083;48.774;8.942;2022-10-04T16:47:24;7.97;;;2.08;;
69030;SDS011;56083;48.774;8.942;2022-10-04T16:50:01;10.02;;;2.08;;
69030;SDS011;56083;48.774;8.942;2022-10-04T16:52:35;14.50;;;2.60;;
69030;SDS011;56083;48.774;8.942;2022-10-04T17:01:01;5.80;;;2.35;;
69030;SDS011;56083;48.774;8.942;2022-10-04T17:04:10;8.48;;;2.33;;
69030;SDS011;56083;48.774;8.942;2022-10-04T17:06:58;13.27;;;2.70;;
69030;SDS011;56083;48.774;8.942;2022-10-04T17:14:45;12.20;;;3.10;;
69030;SDS011;56083;48.774;8.942;2022-10-04T17:19:55;8.25;;;3.03;;
69030;SDS011;56083;48.774;8.942;2022-10-04T17:22:41;7.25;;;3.00;;
69030;SDS011;56083;48.774;8.942;2022-10-04T17:33:43;15.55;;;7.63;;
69030;SDS011;56083;48.774;8.942;2022-10-04T17:47:16;25.05;;;12.75;;
69030;SDS011;56083;48.774;8.942;2022-10-04T17:52:43;33.92;;;20.10;;
69030;SDS011;56083;48.774;8.942;2022-10-04T17:55:41;10.95;;;5.55;;
69030;SDS011;56083;48.774;8.942;2022-10-04T17:58:18;9.27;;;5.88;;
69030;SDS011;56083;48.774;8.942;2022-10-04T18:01:17;12.77;;;5.35;;
69030;SDS011;56083;48.774;8.942;2022-10-04T18:04:26;13.32;;;6.07;;
69030;SDS011;56083;48.774;8.942;2022-10-04T18:07:07;11.80;;;6.38;;
69030;SDS011;56083;48.774;8.942;2022-10-04T18:09:42;12.77;;;6.03;;
69030;SDS011;56083;48.774;8.942;2022-10-04T18:17:48;13.93;;;7.05;;
69030;SDS011;56083;48.774;8.942;2022-10-04T18:20:32;10.68;;;6.28;;
69030;SDS011;56083;48.774;8.942;2022-10-04T18:23:28;15.73;;;7.07;;
69030;SDS011;56083;48.774;8.942;2022-10-04T18:26:04;17.35;;;7.63;;
69030;SDS011;56083;48.774;8.942;2022-10-04T18:28:35;12.55;;;8.40;;
69030;SDS011;56083;48.774;8.942;2022-10-04T18:31:14;13.45;;;8.30;;
69030;SDS011;56083;48.774;8.942;2022-10-04T18:33:54;13.32;;;8.43;;
69030;SDS011;56083;48.774;8.942;2022-10-04T18:36:23;14.48;;;7.40;;
69030;SDS011;56083;48.774;8.942;2022-10-04T18:41:54;17.63;;;7.72;;
69030;SDS011;56083;48.774;8.942;2022-10-04T18:44:42;17.50;;;7.32;;
69030;SDS011;56083;48.774;8.942;2022-10-04T18:47:34;11.88;;;7.00;;
69030;SDS011;56083;48.774;8.942;2022-10-04T18:50:15;11.80;;;6.47;;
69030;SDS011;56083;48.774;8.942;2022-10-04T18:58:00;11.20;;;6.50;;
69030;SDS011;56083;48.774;8.942;2022-10-04T19:04:42;15.73;;;6.93;;
69030;SDS011;56083;48.774;8.942;2022-10-04T19:12:30;13.23;;;6.53;;
69030;SDS011;56083;48.774;8.942;2022-10-04T19:15:55;20.42;;;5.55;;
69030;SDS011;56083;48.774;8.942;2022-10-04T19:18:40;10.00;;;5.00;;
69030;SDS011;56083;48.774;8.942;2022-10-04T19:24:21;13.93;;;5.55;;
69030;SDS011;56083;48.774;8.942;2022-10-04T19:30:14;15.00;;;5.20;;
69030;SDS011;56083;48.774;8.942;2022-10-04T19:35:26;13.15;;;6.18;;
69030;SDS011;56083;48.774;8.942;2022-10-04T19:46:15;21.63;;;13.98;;
69030;SDS011;56083;48.774;8.942;2022-10-04T19:49:06;24.02;;;11.63;;
69030;SDS011;56083;48.774;8.942;2022-10-04T19:51:44;26.98;;;22.70;;
69030;SDS011;56083;48.774;8.942;2022-10-04T19:54:16;22.23;;;16.35;;
69030;SDS011;56083;48.774;8.942;2022-10-04T19:56:49;15.55;;;8.60;;
69030;SDS011;56083;48.774;8.942;2022-10-04T19:59:22;13.57;;;9.65;;
69030;SDS011;56083;48.774;8.942;2022-10-04T20:01:59;13.60;;;8.73;;
69030;SDS011;56083;48.774;8.942;2022-10-04T20:04:25;13.32;;;9.73;;
69030;SDS011;56083;48.774;8.942;2022-10-04T20:07:03;16.60;;;8.75;;
69030;SDS011;56083;48.774;8.942;2022-10-04T20:12:29;18.27;;;9.35;;
69030;SDS011;56083;48.774;8.942;2022-10-04T20:17:52;23.73;;;12.52;;
69030;SDS011;56083;48.774;8.942;2022-10-04T20:21:01;23.58;;;12.30;;
69030;SDS011;56083;48.774;8.942;2022-10-04T20:26:08;20.08;;;11.57;;
69030;SDS011;56083;48.774;8.942;2022-10-04T20:28:37;17.48;;;10.55;;
69030;SDS011;56083;48.774;8.942;2022-10-04T20:31:08;24.65;;;12.38;;
69030;SDS011;56083;48.774;8.942;2022-10-04T20:38:51;18.70;;;12.00;;
69030;SDS011;56083;48.774;8.942;2022-10-04T20:46:35;23.02;;;13.65;;
69030;SDS011;56083;48.774;8.942;2022-10-04T20:49:03;24.33;;;13.57;;
69030;SDS011;56083;48.774;8.942;2022-10-04T20:51:35;25.52;;;14.85;;
69030;SDS011;56083;48.774;8.942;2022-10-04T20:54:01;21.75;;;13.10;;
69030;SDS011;56083;48.774;8.942;2022-10-04T20:56:28;23.38;;;12.88;;
69030;SDS011;56083;48.774;8.942;2022-10-04T21:01:25;22.17;;;12.55;;
69030;SDS011;56083;48.774;8.942;2022-10-04T21:06:54;27.55;;;13.90;;
69030;SDS011;56083;48.774;8.942;2022-10-04T21:09:21;23.08;;;13.45;;
69030;SDS011;56083;48.774;8.942;2022-10-04T21:11:52;19.05;;;12.80;;
69030;SDS011;56083;48.774;8.942;2022-10-04T21:14:23;25.92;;;14.10;;
69030;SDS011;56083;48.774;8.942;2022-10-04T21:16:57;37.53;;;19.52;;
69030;SDS011;56083;48.774;8.942;2022-10-04T21:19:29;25.58;;;14.38;;
69030;SDS011;56083;48.774;8.942;2022-10-04T21:22:01;31.10;;;15.07;;
69030;SDS011;56083;48.774;8.942;2022-10-04T21:24:39;24.25;;;14.80;;
69030;SDS011;56083;48.774;8.942;2022-10-04T21:27:11;22.50;;;12.52;;
69030;SDS011;56083;48.774;8.942;2022-10-04T21:29:50;15.82;;;10.85;;
69030;SDS011;56083;48.774;8.942;2022-10-04T21:32:17;18.17;;;11.35;;
69030;SDS011;56083;48.774;8.942;2022-10-04T21:34:43;19.70;;;10.52;;
69030;SDS011;56083;48.774;8.942;2022-10-04T21:37:09;19.50;;;10.70;;
69030;SDS011;56083;48.774;8.942;2022-10-04T21:39:35;17.08;;;10.25;;
69030;SDS011;56083;48.774;8.942;2022-10-04T21:42:00;19.25;;;10.82;;
69030;SDS011;56083;48.774;8.942;2022-10-04T21:44:26;17.60;;;9.75;;
69030;SDS011;56083;48.774;8.942;2022-10-04T21:46:52;14.93;;;9.68;;
69030;SDS011;56083;48.774;8.942;2022-10-04T21:49:17;19.92;;;9.32;;
69030;SDS011;56083;48.774;8.942;2022-10-04T21:51:43;17.63;;;9.77;;
69030;SDS011;56083;48.774;8.942;2022-10-04T21:54:08;21.70;;;10.05;;
69030;SDS011;56083;48.774;8.942;2022-10-04T21:56:34;19.02;;;10.38;;
69030;SDS011;56083;48.774;8.942;2022-10-04T21:59:00;20.73;;;11.38;;
69030;SDS011;56083;48.774;8.942;2022-10-04T22:01:25;21.50;;;10.80;;
69030;SDS011;56083;48.774;8.942;2022-10-04T22:03:51;24.23;;;14.57;;
69030;SDS011;56083;48.774;8.942;2022-10-04T22:06:16;28.60;;;11.82;;
69030;SDS011;56083;48.774;8.942;2022-10-04T22:08:42;21.02;;;10.88;;
69030;SDS011;56083;48.774;8.942;2022-10-04T22:11:08;21.67;;;10.77;;
69030;SDS011;56083;48.774;8.942;2022-10-04T22:13:34;19.70;;;10.82;;
69030;SDS011;56083;48.774;8.942;2022-10-04T22:16:00;17.13;;;10.80;;
69030;SDS011;56083;48.774;8.942;2022-10-04T22:18:29;19.63;;;10.57;;
69030;SDS011;56083;48.774;8.942;2022-10-04T22:20:58;22.67;;;11.30;;
69030;SDS011;56083;48.774;8.942;2022-10-04T22:23:25;15.48;;;10.00;;
69030;SDS011;56083;48.774;8.942;2022-10-04T22:25:52;14.45;;;8.90;;
69030;SDS011;56083;48.774;8.942;2022-10-04T22:28:26;16.13;;;8.48;;
69030;SDS011;56083;48.774;8.942;2022-10-04T22:30:53;16.35;;;8.38;;
69030;SDS011;56083;48.774;8.942;2022-10-04T22:35:58;12.13;;;7.80;;
69030;SDS011;56083;48.774;8.942;2022-10-04T22:38:43;12.95;;;7.68;;
69030;SDS011;56083;48.774;8.942;2022-10-04T22:41:13;14.48;;;8.57;;
69030;SDS011;56083;48.774;8.942;2022-10-04T22:43:40;15.35;;;9.43;;
69030;SDS011;56083;48.774;8.942;2022-10-04T22:46:16;23.05;;;11.23;;
69030;SDS011;56083;48.774;8.942;2022-10-04T22:48:47;24.40;;;12.02;;
69030;SDS011;56083;48.774;8.942;2022-10-04T22:51:13;25.00;;;12.30;;
69030;SDS011;56083;48.774;8.942;2022-10-04T22:53:43;20.77;;;12.13;;
69030;SDS011;56083;48.774;8.942;2022-10-04T22:56:13;23.55;;;12.70;;
69030;SDS011;56083;48.774;8.942;2022-10-04T22:58:40;25.65;;;13.70;;
69030;SDS011;56083;48.774;8.942;2022-10-04T23:01:14;23.00;;;13.25;;
69030;SDS011;56083;48.774;8.942;2022-10-04T23:03:45;23.30;;;14.95;;
69030;SDS011;56083;48.774;8.942;2022-10-04T23:06:12;32.00;;;16.33;;
69030;SDS011;56083;48.774;8.942;2022-10-04T23:08:39;26.50;;;16.17;;
69030;SDS011;56083;48.774;8.942;2022-10-04T23:11:06;22.98;;;14.02;;
69030;SDS011;56083;48.774;8.942;2022-10-04T23:13:32;25.15;;;13.73;;
69030;SDS011;56083;48.774;8.942;2022-10-04T23:15:58;24.50;;;14.65;;
69030;SDS011;56083;48.774;8.942;2022-10-04T23:18:33;26.10;;;15.10;;
69030;SDS011;56083;48.774;8.942;2022-10-04T23:20:59;21.90;;;14.68;;
69030;SDS011;56083;48.774;8.942;2022-10-04T23:23:26;27.60;;;14.70;;
69030;SDS011;56083;48.774;8.942;2022-10-04T23:25:54;23.00;;;13.45;;
69030;SDS011;56083;48.774;8.942;2022-10-04T23:28:20;25.77;;;14.65;;
69030;SDS011;56083;48.774;8.942;2022-10-04T23:31:07;22.48;;;14.20;;
69030;SDS011;56083;48.774;8.942;2022-10-04T23:33:45;23.08;;;12.98;;
69030;SDS011;56083;48.774;8.942;2022-10-04T23:36:11;20.10;;;12.98;;
69030;SDS011;56083;48.774;8.942;2022-10-04T23:38:37;24.13;;;13.23;;
69030;SDS011;56083;48.774;8.942;2022-10-04T23:41:11;26.27;;;13.63;;
69030;SDS011;56083;48.774;8.942;2022-10-04T23:43:37;27.38;;;13.35;;
69030;SDS011;56083;48.774;8.942;2022-10-04T23:46:13;25.17;;;14.55;;
69030;SDS011;56083;48.774;8.942;2022-10-04T23:48:43;24.42;;;13.85;;
69030;SDS011;56083;48.774;8.942;2022-10-04T23:51:11;23.08;;;13.63;;
69030;SDS011;56083;48.774;8.942;2022-10-04T23:53:39;30.35;;;14.65;;
69030;SDS011;56083;48.774;8.942;2022-10-04T23:56:12;27.08;;;13.70;;
69030;SDS011;56083;48.774;8.942;2022-10-04T23:58:48;20.50;;;13.05;;
